sensor_id;sensor_type;location;lat;lon;timestamp;P1;durP1;ratioP1;P2;durP2;ratioP2
40204;SDS011;26963;42.666;23.366;2023-04-25T00:01:29;10.63;;;9.05;;
40204;SDS011;26963;42.666;23.366;2023-04-25T00:03:55;9.43;;;7.10;;
40204;SDS011;26963;42.666;23.366;2023-04-25T00:06:21;5.85;;;3.85;;
40204;SDS011;26963;42.666;23.366;2023-04-25T00:08:47;3.97;;;3.13;;
40204;SDS011;26963;42.666;23.366;2023-04-25T00:11:12;3.97;;;3.08;;
40204;SDS011;26963;42.666;23.366;2023-04-25T00:13:38;6.13;;;3.28;;
40204;SDS011;26963;42.666;23.366;2023-04-25T00:16:06;5.38;;;3.50;;
40204;SDS011;26963;42.666;23.366;2023-04-25T00:18:33;5.07;;;3.38;;
40204;SDS011;26963;42.666;23.366;2023-04-25T00:20:58;5.20;;;3.63;;
40204;SDS011;26963;42.666;23.366;2023-04-25T00:23:24;4.47;;;3.92;;
40204;SDS011;26963;42.666;23.366;2023-04-25T00:25:49;4.72;;;3.85;;
40204;SDS011;26963;42.666;23.366;2023-04-25T00:28:15;4.50;;;3.80;;
40204;SDS011;26963;42.666;23.366;2023-04-25T00:30:43;4.68;;;4.03;;
40204;SDS011;26963;42.666;23.366;2023-04-25T00:33:08;5.55;;;4.65;;
40204;SDS011;26963;42.666;23.366;2023-04-25T00:35:35;5.57;;;4.50;;
40204;SDS011;26963;42.666;23.366;2023-04-25T00:38:01;6.60;;;4.55;;
40204;SDS011;26963;42.666;23.366;2023-04-25T00:40:27;6.43;;;4.22;;
40204;SDS011;26963;42.666;23.366;2023-04-25T00:42:56;5.88;;;5.07;;
40204;SDS011;26963;42.666;23.366;2023-04-25T00:45:21;6.13;;;4.60;;
40204;SDS011;26963;42.666;23.366;2023-04-25T00:47:49;5.63;;;4.32;;
40204;SDS011;26963;42.666;23.366;2023-04-25T00:50:15;6.30;;;4.40;;
40204;SDS011;26963;42.666;23.366;2023-04-25T00:52:41;5.88;;;4.65;;
40204;SDS011;26963;42.666;23.366;2023-04-25T00:55:09;8.57;;;4.40;;
40204;SDS011;26963;42.666;23.366;2023-04-25T00:57:37;8.13;;;4.40;;
40204;SDS011;26963;42.666;23.366;2023-04-25T01:00:04;4.80;;;4.30;;
40204;SDS011;26963;42.666;23.366;2023-04-25T01:02:32;7.43;;;5.82;;
40204;SDS011;26963;42.666;23.366;2023-04-25T01:05:00;4.60;;;4.05;;
40204;SDS011;26963;42.666;23.366;2023-04-25T01:07:26;12.40;;;10.73;;
40204;SDS011;26963;42.666;23.366;2023-04-25T01:09:55;8.38;;;7.05;;
40204;SDS011;26963;42.666;23.366;2023-04-25T01:12:21;8.50;;;5.22;;
40204;SDS011;26963;42.666;23.366;2023-04-25T01:14:48;6.88;;;5.43;;
40204;SDS011;26963;42.666;23.366;2023-04-25T01:17:13;5.13;;;4.22;;
40204;SDS011;26963;42.666;23.366;2023-04-25T01:19:40;4.65;;;3.10;;
40204;SDS011;26963;42.666;23.366;2023-04-25T01:22:05;3.88;;;3.40;;
40204;SDS011;26963;42.666;23.366;2023-04-25T01:24:32;6.60;;;3.67;;
40204;SDS011;26963;42.666;23.366;2023-04-25T01:26:58;11.57;;;3.63;;
40204;SDS011;26963;42.666;23.366;2023-04-25T01:29:25;6.47;;;3.42;;
40204;SDS011;26963;42.666;23.366;2023-04-25T01:31:55;5.53;;;3.58;;
40204;SDS011;26963;42.666;23.366;2023-04-25T01:34:23;5.85;;;3.80;;
40204;SDS011;26963;42.666;23.366;2023-04-25T01:36:49;8.45;;;4.13;;
40204;SDS011;26963;42.666;23.366;2023-04-25T01:39:19;4.63;;;3.80;;
40204;SDS011;26963;42.666;23.366;2023-04-25T01:41:46;5.55;;;4.22;;
40204;SDS011;26963;42.666;23.366;2023-04-25T01:44:12;5.32;;;4.22;;
40204;SDS011;26963;42.666;23.366;2023-04-25T01:46:38;6.13;;;4.30;;
40204;SDS011;26963;42.666;23.366;2023-04-25T01:49:04;7.18;;;3.90;;
40204;SDS011;26963;42.666;23.366;2023-04-25T01:51:30;5.15;;;4.32;;
40204;SDS011;26963;42.666;23.366;2023-04-25T01:53:57;5.55;;;4.32;;
40204;SDS011;26963;42.666;23.366;2023-04-25T01:56:29;6.63;;;5.40;;
40204;SDS011;26963;42.666;23.366;2023-04-25T01:58:55;9.25;;;7.38;;
40204;SDS011;26963;42.666;23.366;2023-04-25T02:01:21;5.95;;;4.80;;
40204;SDS011;26963;42.666;23.366;2023-04-25T02:03:47;10.05;;;8.07;;
40204;SDS011;26963;42.666;23.366;2023-04-25T02:06:12;9.23;;;7.45;;
40204;SDS011;26963;42.666;23.366;2023-04-25T02:08:38;5.80;;;4.72;;
40204;SDS011;26963;42.666;23.366;2023-04-25T02:11:03;6.57;;;5.47;;
40204;SDS011;26963;42.666;23.366;2023-04-25T02:13:29;6.53;;;5.70;;
40204;SDS011;26963;42.666;23.366;2023-04-25T02:15:54;6.40;;;5.00;;
40204;SDS011;26963;42.666;23.366;2023-04-25T02:18:20;14.15;;;12.25;;
40204;SDS011;26963;42.666;23.366;2023-04-25T02:20:46;6.47;;;5.53;;
40204;SDS011;26963;42.666;23.366;2023-04-25T02:23:12;13.43;;;10.85;;
40204;SDS011;26963;42.666;23.366;2023-04-25T02:25:38;14.98;;;13.07;;
40204;SDS011;26963;42.666;23.366;2023-04-25T02:28:03;7.28;;;4.93;;
40204;SDS011;26963;42.666;23.366;2023-04-25T02:30:29;5.80;;;4.75;;
40204;SDS011;26963;42.666;23.366;2023-04-25T02:32:54;8.52;;;5.55;;
40204;SDS011;26963;42.666;23.366;2023-04-25T02:35:20;7.57;;;6.00;;
40204;SDS011;26963;42.666;23.366;2023-04-25T02:37:46;5.97;;;5.38;;
40204;SDS011;26963;42.666;23.366;2023-04-25T02:40:11;7.28;;;4.57;;
40204;SDS011;26963;42.666;23.366;2023-04-25T02:42:37;6.57;;;5.10;;
40204;SDS011;26963;42.666;23.366;2023-04-25T02:45:02;11.05;;;5.25;;
40204;SDS011;26963;42.666;23.366;2023-04-25T02:47:28;7.22;;;5.93;;
40204;SDS011;26963;42.666;23.366;2023-04-25T02:49:54;9.60;;;5.80;;
40204;SDS011;26963;42.666;23.366;2023-04-25T02:52:20;6.03;;;5.22;;
40204;SDS011;26963;42.666;23.366;2023-04-25T02:54:46;6.00;;;5.40;;
40204;SDS011;26963;42.666;23.366;2023-04-25T02:57:11;7.22;;;5.47;;
40204;SDS011;26963;42.666;23.366;2023-04-25T02:59:37;5.70;;;5.07;;
40204;SDS011;26963;42.666;23.366;2023-04-25T03:02:03;5.88;;;4.93;;
40204;SDS011;26963;42.666;23.366;2023-04-25T03:04:28;6.47;;;5.60;;
40204;SDS011;26963;42.666;23.366;2023-04-25T03:06:54;6.38;;;5.47;;
40204;SDS011;26963;42.666;23.366;2023-04-25T03:09:20;6.20;;;5.60;;
40204;SDS011;26963;42.666;23.366;2023-04-25T03:11:45;6.47;;;5.78;;
40204;SDS011;26963;42.666;23.366;2023-04-25T03:14:11;8.40;;;6.40;;
40204;SDS011;26963;42.666;23.366;2023-04-25T03:16:43;7.70;;;6.90;;
40204;SDS011;26963;42.666;23.366;2023-04-25T03:19:09;7.20;;;6.28;;
40204;SDS011;26963;42.666;23.366;2023-04-25T03:21:35;6.63;;;5.93;;
40204;SDS011;26963;42.666;23.366;2023-04-25T03:24:01;8.63;;;6.57;;
40204;SDS011;26963;42.666;23.366;2023-04-25T03:26:28;7.68;;;6.63;;
40204;SDS011;26963;42.666;23.366;2023-04-25T03:28:54;7.38;;;6.22;;
40204;SDS011;26963;42.666;23.366;2023-04-25T03:31:19;7.70;;;6.47;;
40204;SDS011;26963;42.666;23.366;2023-04-25T03:33:45;9.02;;;7.10;;
40204;SDS011;26963;42.666;23.366;2023-04-25T03:36:10;9.48;;;6.57;;
40204;SDS011;26963;42.666;23.366;2023-04-25T03:38:36;9.70;;;7.20;;
40204;SDS011;26963;42.666;23.366;2023-04-25T03:41:01;7.35;;;6.40;;
40204;SDS011;26963;42.666;23.366;2023-04-25T03:43:28;8.07;;;7.28;;
40204;SDS011;26963;42.666;23.366;2023-04-25T03:45:53;7.45;;;6.75;;
40204;SDS011;26963;42.666;23.366;2023-04-25T03:48:19;10.25;;;7.90;;
40204;SDS011;26963;42.666;23.366;2023-04-25T03:50:49;7.72;;;6.88;;
40204;SDS011;26963;42.666;23.366;2023-04-25T03:53:15;9.18;;;7.85;;
40204;SDS011;26963;42.666;23.366;2023-04-25T03:55:41;10.02;;;7.70;;
40204;SDS011;26963;42.666;23.366;2023-04-25T03:58:06;7.80;;;6.20;;
40204;SDS011;26963;42.666;23.366;2023-04-25T04:00:33;8.05;;;7.25;;
40204;SDS011;26963;42.666;23.366;2023-04-25T04:02:59;13.70;;;11.65;;
40204;SDS011;26963;42.666;23.366;2023-04-25T04:05:24;8.32;;;6.95;;
40204;SDS011;26963;42.666;23.366;2023-04-25T04:07:50;9.07;;;8.10;;
40204;SDS011;26963;42.666;23.366;2023-04-25T04:10:15;9.73;;;7.53;;
40204;SDS011;26963;42.666;23.366;2023-04-25T04:12:41;10.65;;;8.30;;
40204;SDS011;26963;42.666;23.366;2023-04-25T04:15:07;11.40;;;8.77;;
40204;SDS011;26963;42.666;23.366;2023-04-25T04:17:33;9.70;;;7.72;;
40204;SDS011;26963;42.666;23.366;2023-04-25T04:19:59;11.85;;;8.65;;
40204;SDS011;26963;42.666;23.366;2023-04-25T04:22:24;12.15;;;9.38;;
40204;SDS011;26963;42.666;23.366;2023-04-25T04:24:50;9.77;;;8.43;;
40204;SDS011;26963;42.666;23.366;2023-04-25T04:27:19;9.88;;;8.88;;
40204;SDS011;26963;42.666;23.366;2023-04-25T04:29:46;9.40;;;8.40;;
40204;SDS011;26963;42.666;23.366;2023-04-25T04:32:12;10.10;;;9.00;;
40204;SDS011;26963;42.666;23.366;2023-04-25T04:34:39;10.73;;;8.43;;
40204;SDS011;26963;42.666;23.366;2023-04-25T04:37:04;9.18;;;7.35;;
40204;SDS011;26963;42.666;23.366;2023-04-25T04:39:32;10.50;;;9.38;;
40204;SDS011;26963;42.666;23.366;2023-04-25T04:41:58;10.05;;;8.50;;
40204;SDS011;26963;42.666;23.366;2023-04-25T04:44:24;8.82;;;7.72;;
40204;SDS011;26963;42.666;23.366;2023-04-25T04:46:50;9.88;;;8.27;;
40204;SDS011;26963;42.666;23.366;2023-04-25T04:49:16;13.52;;;9.93;;
40204;SDS011;26963;42.666;23.366;2023-04-25T04:51:42;10.63;;;8.80;;
40204;SDS011;26963;42.666;23.366;2023-04-25T04:54:09;9.35;;;8.45;;
40204;SDS011;26963;42.666;23.366;2023-04-25T04:56:35;9.10;;;8.15;;
40204;SDS011;26963;42.666;23.366;2023-04-25T04:59:01;7.80;;;7.00;;
40204;SDS011;26963;42.666;23.366;2023-04-25T05:01:30;8.95;;;7.35;;
40204;SDS011;26963;42.666;23.366;2023-04-25T05:03:56;9.50;;;8.27;;
40204;SDS011;26963;42.666;23.366;2023-04-25T05:06:26;9.70;;;8.73;;
40204;SDS011;26963;42.666;23.366;2023-04-25T05:08:58;14.15;;;12.65;;
40204;SDS011;26963;42.666;23.366;2023-04-25T05:11:24;11.98;;;10.68;;
40204;SDS011;26963;42.666;23.366;2023-04-25T05:13:55;11.23;;;10.13;;
40204;SDS011;26963;42.666;23.366;2023-04-25T05:16:21;14.30;;;12.90;;
40204;SDS011;26963;42.666;23.366;2023-04-25T05:18:47;11.70;;;10.50;;
40204;SDS011;26963;42.666;23.366;2023-04-25T05:21:12;11.40;;;10.23;;
40204;SDS011;26963;42.666;23.366;2023-04-25T05:23:38;15.23;;;13.30;;
40204;SDS011;26963;42.666;23.366;2023-04-25T05:26:03;14.25;;;12.75;;
40204;SDS011;26963;42.666;23.366;2023-04-25T05:28:30;12.82;;;10.15;;
40204;SDS011;26963;42.666;23.366;2023-04-25T05:30:56;10.88;;;8.50;;
40204;SDS011;26963;42.666;23.366;2023-04-25T05:33:21;12.55;;;10.80;;
40204;SDS011;26963;42.666;23.366;2023-04-25T05:35:47;10.82;;;8.65;;
40204;SDS011;26963;42.666;23.366;2023-04-25T05:38:12;12.07;;;9.15;;
40204;SDS011;26963;42.666;23.366;2023-04-25T05:40:38;11.98;;;10.27;;
40204;SDS011;26963;42.666;23.366;2023-04-25T05:43:03;11.93;;;10.27;;
40204;SDS011;26963;42.666;23.366;2023-04-25T05:45:29;11.27;;;9.65;;
40204;SDS011;26963;42.666;23.366;2023-04-25T05:47:54;10.35;;;9.05;;
40204;SDS011;26963;42.666;23.366;2023-04-25T05:50:20;10.57;;;8.73;;
40204;SDS011;26963;42.666;23.366;2023-04-25T05:52:46;9.98;;;8.50;;
40204;SDS011;26963;42.666;23.366;2023-04-25T05:55:11;9.73;;;8.77;;
40204;SDS011;26963;42.666;23.366;2023-04-25T05:57:37;11.85;;;8.32;;
40204;SDS011;26963;42.666;23.366;2023-04-25T06:00:07;10.82;;;9.48;;
40204;SDS011;26963;42.666;23.366;2023-04-25T06:02:34;12.15;;;8.75;;
40204;SDS011;26963;42.666;23.366;2023-04-25T06:04:59;9.73;;;8.20;;
40204;SDS011;26963;42.666;23.366;2023-04-25T06:07:28;10.35;;;8.32;;
40204;SDS011;26963;42.666;23.366;2023-04-25T06:09:55;10.27;;;7.55;;
40204;SDS011;26963;42.666;23.366;2023-04-25T06:12:20;9.07;;;7.35;;
40204;SDS011;26963;42.666;23.366;2023-04-25T06:14:46;11.20;;;7.05;;
40204;SDS011;26963;42.666;23.366;2023-04-25T06:17:11;9.63;;;6.95;;
40204;SDS011;26963;42.666;23.366;2023-04-25T06:19:37;9.05;;;6.35;;
40204;SDS011;26963;42.666;23.366;2023-04-25T06:22:02;7.13;;;5.40;;
40204;SDS011;26963;42.666;23.366;2023-04-25T06:24:28;6.80;;;5.70;;
40204;SDS011;26963;42.666;23.366;2023-04-25T06:26:53;8.10;;;5.50;;
40204;SDS011;26963;42.666;23.366;2023-04-25T06:29:19;7.03;;;5.60;;
40204;SDS011;26963;42.666;23.366;2023-04-25T06:31:45;9.43;;;5.95;;
40204;SDS011;26963;42.666;23.366;2023-04-25T06:34:11;6.85;;;5.72;;
40204;SDS011;26963;42.666;23.366;2023-04-25T06:36:37;9.25;;;6.35;;
40204;SDS011;26963;42.666;23.366;2023-04-25T06:39:02;6.88;;;6.13;;
40204;SDS011;26963;42.666;23.366;2023-04-25T06:41:34;9.35;;;5.75;;
40204;SDS011;26963;42.666;23.366;2023-04-25T06:44:02;8.20;;;5.93;;
40204;SDS011;26963;42.666;23.366;2023-04-25T06:46:34;7.05;;;6.10;;
40204;SDS011;26963;42.666;23.366;2023-04-25T06:48:59;11.30;;;6.50;;
40204;SDS011;26963;42.666;23.366;2023-04-25T06:51:25;8.23;;;6.45;;
40204;SDS011;26963;42.666;23.366;2023-04-25T06:53:53;8.68;;;6.45;;
40204;SDS011;26963;42.666;23.366;2023-04-25T06:56:19;7.68;;;5.82;;
40204;SDS011;26963;42.666;23.366;2023-04-25T06:58:44;7.13;;;5.43;;
40204;SDS011;26963;42.666;23.366;2023-04-25T07:01:10;6.78;;;4.65;;
40204;SDS011;26963;42.666;23.366;2023-04-25T07:03:35;4.82;;;4.20;;
40204;SDS011;26963;42.666;23.366;2023-04-25T07:06:02;5.95;;;4.70;;
40204;SDS011;26963;42.666;23.366;2023-04-25T07:08:28;7.05;;;4.68;;
40204;SDS011;26963;42.666;23.366;2023-04-25T07:10:54;5.32;;;3.78;;
40204;SDS011;26963;42.666;23.366;2023-04-25T07:13:20;5.20;;;3.60;;
40204;SDS011;26963;42.666;23.366;2023-04-25T07:15:46;8.43;;;3.90;;
40204;SDS011;26963;42.666;23.366;2023-04-25T07:18:13;8.05;;;4.38;;
40204;SDS011;26963;42.666;23.366;2023-04-25T07:20:45;5.50;;;3.95;;
40204;SDS011;26963;42.666;23.366;2023-04-25T07:23:28;6.50;;;3.88;;
40204;SDS011;26963;42.666;23.366;2023-04-25T07:25:56;7.68;;;3.60;;
40204;SDS011;26963;42.666;23.366;2023-04-25T07:28:22;5.05;;;3.75;;
40204;SDS011;26963;42.666;23.366;2023-04-25T07:30:47;7.18;;;3.97;;
40204;SDS011;26963;42.666;23.366;2023-04-25T07:33:13;7.28;;;4.25;;
40204;SDS011;26963;42.666;23.366;2023-04-25T07:35:38;8.00;;;4.10;;
40204;SDS011;26963;42.666;23.366;2023-04-25T07:38:04;7.25;;;4.13;;
40204;SDS011;26963;42.666;23.366;2023-04-25T07:40:31;5.40;;;3.60;;
40204;SDS011;26963;42.666;23.366;2023-04-25T07:43:00;5.57;;;3.80;;
40204;SDS011;26963;42.666;23.366;2023-04-25T07:45:26;5.18;;;4.55;;
40204;SDS011;26963;42.666;23.366;2023-04-25T07:47:51;6.75;;;4.55;;
40204;SDS011;26963;42.666;23.366;2023-04-25T07:50:17;7.63;;;4.07;;
40204;SDS011;26963;42.666;23.366;2023-04-25T07:52:42;5.28;;;4.20;;
40204;SDS011;26963;42.666;23.366;2023-04-25T07:55:08;5.22;;;3.70;;
40204;SDS011;26963;42.666;23.366;2023-04-25T07:57:34;5.47;;;3.97;;
40204;SDS011;26963;42.666;23.366;2023-04-25T07:59:59;7.53;;;4.65;;
40204;SDS011;26963;42.666;23.366;2023-04-25T08:02:25;8.10;;;4.47;;
40204;SDS011;26963;42.666;23.366;2023-04-25T08:04:53;5.78;;;4.30;;
40204;SDS011;26963;42.666;23.366;2023-04-25T08:07:18;6.03;;;4.82;;
40204;SDS011;26963;42.666;23.366;2023-04-25T08:09:44;6.20;;;5.05;;
40204;SDS011;26963;42.666;23.366;2023-04-25T08:12:10;7.53;;;4.70;;
40204;SDS011;26963;42.666;23.366;2023-04-25T08:14:36;8.10;;;4.47;;
40204;SDS011;26963;42.666;23.366;2023-04-25T08:17:02;6.30;;;4.18;;
40204;SDS011;26963;42.666;23.366;2023-04-25T08:19:29;6.93;;;4.43;;
40204;SDS011;26963;42.666;23.366;2023-04-25T08:21:55;6.15;;;4.00;;
40204;SDS011;26963;42.666;23.366;2023-04-25T08:24:21;6.72;;;4.15;;
40204;SDS011;26963;42.666;23.366;2023-04-25T08:26:47;6.50;;;3.45;;
40204;SDS011;26963;42.666;23.366;2023-04-25T08:29:13;7.93;;;4.00;;
40204;SDS011;26963;42.666;23.366;2023-04-25T08:31:42;7.78;;;3.97;;
40204;SDS011;26963;42.666;23.366;2023-04-25T08:34:08;6.22;;;3.65;;
40204;SDS011;26963;42.666;23.366;2023-04-25T08:36:34;6.15;;;3.10;;
40204;SDS011;26963;42.666;23.366;2023-04-25T08:38:59;9.50;;;4.10;;
40204;SDS011;26963;42.666;23.366;2023-04-25T08:41:25;10.13;;;4.28;;
40204;SDS011;26963;42.666;23.366;2023-04-25T08:43:55;8.77;;;4.13;;
40204;SDS011;26963;42.666;23.366;2023-04-25T08:46:22;7.90;;;4.10;;
40204;SDS011;26963;42.666;23.366;2023-04-25T08:48:48;7.03;;;4.25;;
40204;SDS011;26963;42.666;23.366;2023-04-25T08:51:22;10.35;;;4.78;;
40204;SDS011;26963;42.666;23.366;2023-04-25T08:53:51;7.90;;;3.78;;
40204;SDS011;26963;42.666;23.366;2023-04-25T08:56:33;5.72;;;3.45;;
40204;SDS011;26963;42.666;23.366;2023-04-25T08:59:03;8.43;;;5.00;;
40204;SDS011;26963;42.666;23.366;2023-04-25T09:01:29;11.88;;;9.38;;
40204;SDS011;26963;42.666;23.366;2023-04-25T09:03:54;16.23;;;13.30;;
40204;SDS011;26963;42.666;23.366;2023-04-25T09:06:20;9.98;;;6.32;;
40204;SDS011;26963;42.666;23.366;2023-04-25T09:08:46;11.30;;;7.15;;
40204;SDS011;26963;42.666;23.366;2023-04-25T09:11:12;10.55;;;7.20;;
40204;SDS011;26963;42.666;23.366;2023-04-25T09:13:39;9.55;;;7.22;;
40204;SDS011;26963;42.666;23.366;2023-04-25T09:16:04;8.27;;;6.35;;
40204;SDS011;26963;42.666;23.366;2023-04-25T09:18:31;8.13;;;5.50;;
40204;SDS011;26963;42.666;23.366;2023-04-25T09:21:08;8.85;;;5.88;;
40204;SDS011;26963;42.666;23.366;2023-04-25T09:23:45;9.40;;;5.45;;
40204;SDS011;26963;42.666;23.366;2023-04-25T09:26:18;9.05;;;5.70;;
40204;SDS011;26963;42.666;23.366;2023-04-25T09:28:45;9.13;;;5.43;;
40204;SDS011;26963;42.666;23.366;2023-04-25T09:31:21;10.82;;;6.63;;
40204;SDS011;26963;42.666;23.366;2023-04-25T09:33:49;9.95;;;6.85;;
40204;SDS011;26963;42.666;23.366;2023-04-25T09:36:14;8.77;;;6.72;;
40204;SDS011;26963;42.666;23.366;2023-04-25T09:38:41;9.23;;;6.32;;
40204;SDS011;26963;42.666;23.366;2023-04-25T09:41:09;11.15;;;9.10;;
40204;SDS011;26963;42.666;23.366;2023-04-25T09:43:35;9.68;;;6.85;;
40204;SDS011;26963;42.666;23.366;2023-04-25T09:46:01;8.10;;;5.85;;
40204;SDS011;26963;42.666;23.366;2023-04-25T09:48:30;7.45;;;5.40;;
40204;SDS011;26963;42.666;23.366;2023-04-25T09:53:28;6.35;;;5.00;;
40204;SDS011;26963;42.666;23.366;2023-04-25T09:55:54;7.47;;;5.00;;
40204;SDS011;26963;42.666;23.366;2023-04-25T09:58:21;9.38;;;4.90;;
40204;SDS011;26963;42.666;23.366;2023-04-25T10:00:49;6.82;;;5.15;;
40204;SDS011;26963;42.666;23.366;2023-04-25T10:03:17;6.68;;;4.40;;
40204;SDS011;26963;42.666;23.366;2023-04-25T10:05:45;6.28;;;4.47;;
40204;SDS011;26963;42.666;23.366;2023-04-25T10:08:14;8.90;;;4.43;;
40204;SDS011;26963;42.666;23.366;2023-04-25T10:10:41;7.40;;;4.30;;
40204;SDS011;26963;42.666;23.366;2023-04-25T10:13:08;8.75;;;4.65;;
40204;SDS011;26963;42.666;23.366;2023-04-25T10:15:36;5.85;;;4.30;;
40204;SDS011;26963;42.666;23.366;2023-04-25T10:18:02;6.82;;;4.28;;
40204;SDS011;26963;42.666;23.366;2023-04-25T10:20:29;6.38;;;3.58;;
40204;SDS011;26963;42.666;23.366;2023-04-25T10:22:55;7.38;;;3.70;;
40204;SDS011;26963;42.666;23.366;2023-04-25T10:25:31;6.70;;;5.03;;
40204;SDS011;26963;42.666;23.366;2023-04-25T10:27:57;7.45;;;4.72;;
40204;SDS011;26963;42.666;23.366;2023-04-25T10:30:25;7.47;;;4.70;;
40204;SDS011;26963;42.666;23.366;2023-04-25T10:32:51;6.60;;;4.40;;
40204;SDS011;26963;42.666;23.366;2023-04-25T10:35:27;6.68;;;3.60;;
40204;SDS011;26963;42.666;23.366;2023-04-25T10:40:33;5.93;;;2.60;;
40204;SDS011;26963;42.666;23.366;2023-04-25T10:45:56;46.33;;;13.13;;
40204;SDS011;26963;42.666;23.366;2023-04-25T10:48:37;10.63;;;5.13;;
40204;SDS011;26963;42.666;23.366;2023-04-25T10:51:11;13.68;;;5.32;;
40204;SDS011;26963;42.666;23.366;2023-04-25T10:53:40;4.78;;;2.50;;
40204;SDS011;26963;42.666;23.366;2023-04-25T10:59:10;5.93;;;1.88;;
40204;SDS011;26963;42.666;23.366;2023-04-25T11:04:31;8.57;;;2.40;;
40204;SDS011;26963;42.666;23.366;2023-04-25T11:09:43;7.43;;;1.98;;
40204;SDS011;26963;42.666;23.366;2023-04-25T11:12:10;3.30;;;1.75;;
40204;SDS011;26963;42.666;23.366;2023-04-25T11:14:40;3.60;;;1.70;;
40204;SDS011;26963;42.666;23.366;2023-04-25T11:17:05;3.97;;;2.00;;
40204;SDS011;26963;42.666;23.366;2023-04-25T11:19:31;4.40;;;2.10;;
40204;SDS011;26963;42.666;23.366;2023-04-25T11:22:00;3.78;;;2.30;;
40204;SDS011;26963;42.666;23.366;2023-04-25T11:24:29;5.93;;;2.47;;
40204;SDS011;26963;42.666;23.366;2023-04-25T11:26:59;5.90;;;2.70;;
40204;SDS011;26963;42.666;23.366;2023-04-25T11:29:30;7.18;;;4.40;;
40204;SDS011;26963;42.666;23.366;2023-04-25T11:31:56;4.38;;;2.40;;
40204;SDS011;26963;42.666;23.366;2023-04-25T11:34:29;7.38;;;2.63;;
40204;SDS011;26963;42.666;23.366;2023-04-25T11:39:44;3.15;;;2.17;;
40204;SDS011;26963;42.666;23.366;2023-04-25T11:42:11;8.45;;;2.85;;
40204;SDS011;26963;42.666;23.366;2023-04-25T11:44:37;3.92;;;2.25;;
40204;SDS011;26963;42.666;23.366;2023-04-25T11:47:05;7.50;;;2.50;;
40204;SDS011;26963;42.666;23.366;2023-04-25T11:49:31;3.60;;;2.45;;
40204;SDS011;26963;42.666;23.366;2023-04-25T11:52:00;6.15;;;2.83;;
40204;SDS011;26963;42.666;23.366;2023-04-25T11:54:25;5.40;;;2.67;;
40204;SDS011;26963;42.666;23.366;2023-04-25T11:56:51;5.68;;;3.17;;
40204;SDS011;26963;42.666;23.366;2023-04-25T11:59:16;3.53;;;2.00;;
40204;SDS011;26963;42.666;23.366;2023-04-25T12:06:48;2.78;;;1.23;;
40204;SDS011;26963;42.666;23.366;2023-04-25T12:09:19;1.92;;;1.20;;
40204;SDS011;26963;42.666;23.366;2023-04-25T12:11:55;2.60;;;1.15;;
40204;SDS011;26963;42.666;23.366;2023-04-25T12:14:31;2.90;;;1.08;;
40204;SDS011;26963;42.666;23.366;2023-04-25T12:16:59;2.67;;;1.10;;
40204;SDS011;26963;42.666;23.366;2023-04-25T12:19:26;3.55;;;1.40;;
40204;SDS011;26963;42.666;23.366;2023-04-25T12:22:00;3.30;;;1.98;;
40204;SDS011;26963;42.666;23.366;2023-04-25T12:24:32;2.53;;;1.33;;
40204;SDS011;26963;42.666;23.366;2023-04-25T12:27:00;2.17;;;0.90;;
40204;SDS011;26963;42.666;23.366;2023-04-25T12:29:31;1.40;;;0.88;;
40204;SDS011;26963;42.666;23.366;2023-04-25T12:31:58;2.00;;;1.20;;
40204;SDS011;26963;42.666;23.366;2023-04-25T12:34:24;2.03;;;1.02;;
40204;SDS011;26963;42.666;23.366;2023-04-25T12:36:51;1.60;;;1.05;;
40204;SDS011;26963;42.666;23.366;2023-04-25T12:39:18;3.97;;;1.73;;
40204;SDS011;26963;42.666;23.366;2023-04-25T12:41:45;3.65;;;1.80;;
40204;SDS011;26963;42.666;23.366;2023-04-25T12:44:11;5.18;;;1.80;;
40204;SDS011;26963;42.666;23.366;2023-04-25T12:46:37;8.00;;;1.73;;
40204;SDS011;26963;42.666;23.366;2023-04-25T12:49:04;4.32;;;1.55;;
40204;SDS011;26963;42.666;23.366;2023-04-25T12:51:31;4.07;;;1.70;;
40204;SDS011;26963;42.666;23.366;2023-04-25T12:53:58;6.90;;;3.55;;
40204;SDS011;26963;42.666;23.366;2023-04-25T12:56:25;7.20;;;2.83;;
40204;SDS011;26963;42.666;23.366;2023-04-25T12:58:51;3.58;;;1.77;;
40204;SDS011;26963;42.666;23.366;2023-04-25T13:01:17;5.43;;;1.73;;
40204;SDS011;26963;42.666;23.366;2023-04-25T13:03:42;7.55;;;2.80;;
40204;SDS011;26963;42.666;23.366;2023-04-25T13:06:08;6.05;;;3.40;;
40204;SDS011;26963;42.666;23.366;2023-04-25T13:08:34;5.15;;;3.15;;
40204;SDS011;26963;42.666;23.366;2023-04-25T13:11:01;7.65;;;3.35;;
40204;SDS011;26963;42.666;23.366;2023-04-25T13:13:28;5.50;;;2.38;;
40204;SDS011;26963;42.666;23.366;2023-04-25T13:15:54;5.60;;;2.25;;
40204;SDS011;26963;42.666;23.366;2023-04-25T13:18:20;5.07;;;1.90;;
40204;SDS011;26963;42.666;23.366;2023-04-25T13:20:46;6.18;;;2.22;;
40204;SDS011;26963;42.666;23.366;2023-04-25T13:23:11;4.88;;;2.00;;
40204;SDS011;26963;42.666;23.366;2023-04-25T13:25:40;5.57;;;1.77;;
40204;SDS011;26963;42.666;23.366;2023-04-25T13:28:06;6.05;;;2.67;;
40204;SDS011;26963;42.666;23.366;2023-04-25T13:30:31;8.13;;;2.38;;
40204;SDS011;26963;42.666;23.366;2023-04-25T13:32:56;6.10;;;2.70;;
40204;SDS011;26963;42.666;23.366;2023-04-25T13:35:28;6.93;;;2.42;;
40204;SDS011;26963;42.666;23.366;2023-04-25T13:37:55;4.50;;;2.35;;
40204;SDS011;26963;42.666;23.366;2023-04-25T13:40:21;4.68;;;2.33;;
40204;SDS011;26963;42.666;23.366;2023-04-25T13:42:47;5.25;;;2.45;;
40204;SDS011;26963;42.666;23.366;2023-04-25T13:45:13;4.85;;;2.00;;
40204;SDS011;26963;42.666;23.366;2023-04-25T13:47:38;10.13;;;2.33;;
40204;SDS011;26963;42.666;23.366;2023-04-25T13:50:04;4.07;;;2.30;;
40204;SDS011;26963;42.666;23.366;2023-04-25T13:52:31;5.28;;;2.40;;
40204;SDS011;26963;42.666;23.366;2023-04-25T13:54:57;3.67;;;2.00;;
40204;SDS011;26963;42.666;23.366;2023-04-25T13:57:26;5.25;;;2.90;;
40204;SDS011;26963;42.666;23.366;2023-04-25T13:59:51;6.95;;;2.90;;
40204;SDS011;26963;42.666;23.366;2023-04-25T14:02:18;4.78;;;3.05;;
40204;SDS011;26963;42.666;23.366;2023-04-25T14:04:43;5.85;;;3.67;;
40204;SDS011;26963;42.666;23.366;2023-04-25T14:07:09;5.07;;;2.55;;
40204;SDS011;26963;42.666;23.366;2023-04-25T14:09:36;3.63;;;2.03;;
40204;SDS011;26963;42.666;23.366;2023-04-25T14:12:02;5.85;;;1.90;;
40204;SDS011;26963;42.666;23.366;2023-04-25T14:14:31;6.47;;;2.30;;
40204;SDS011;26963;42.666;23.366;2023-04-25T14:16:56;3.92;;;1.90;;
40204;SDS011;26963;42.666;23.366;2023-04-25T14:19:25;2.28;;;1.48;;
40204;SDS011;26963;42.666;23.366;2023-04-25T14:21:50;4.45;;;2.60;;
40204;SDS011;26963;42.666;23.366;2023-04-25T14:24:16;4.53;;;2.00;;
40204;SDS011;26963;42.666;23.366;2023-04-25T14:26:42;14.30;;;9.80;;
40204;SDS011;26963;42.666;23.366;2023-04-25T14:29:08;14.75;;;11.63;;
40204;SDS011;26963;42.666;23.366;2023-04-25T14:31:36;9.50;;;6.93;;
40204;SDS011;26963;42.666;23.366;2023-04-25T14:34:04;6.28;;;4.60;;
40204;SDS011;26963;42.666;23.366;2023-04-25T14:36:30;7.68;;;5.40;;
40204;SDS011;26963;42.666;23.366;2023-04-25T14:39:00;6.65;;;5.40;;
40204;SDS011;26963;42.666;23.366;2023-04-25T14:41:26;6.53;;;5.40;;
40204;SDS011;26963;42.666;23.366;2023-04-25T14:43:52;6.10;;;4.75;;
40204;SDS011;26963;42.666;23.366;2023-04-25T14:46:18;4.25;;;2.92;;
40204;SDS011;26963;42.666;23.366;2023-04-25T14:48:45;3.15;;;2.20;;
40204;SDS011;26963;42.666;23.366;2023-04-25T14:51:15;5.13;;;1.92;;
40204;SDS011;26963;42.666;23.366;2023-04-25T14:53:41;2.03;;;1.10;;